sensor_id;sensor_type;location;lat;lon;timestamp;pressure;altitude;pressure_sealevel;temperature;humidity
8890;BME280;4481;43.406;24.454;2022-11-15T00:00:06;77953.97;;;-144.09;100.00
8890;BME280;4481;43.406;24.454;2022-11-15T00:02:33;77962.31;;;-144.09;100.00
8890;BME280;4481;43.406;24.454;2022-11-15T00:04:59;77966.50;;;-144.09;100.00
8890;BME280;4481;43.406;24.454;2022-11-15T00:07:25;77956.03;;;-144.09;100.00
8890;BME280;4481;43.406;24.454;2022-11-15T00:09:52;77960.22;;;-144.09;100.00
8890;BME280;4481;43.406;24.454;2022-11-15T00:12:18;77970.69;;;-144.09;100.00
8890;BME280;4481;43.406;24.454;2022-11-15T00:14:44;77976.94;;;-144.09;100.00
8890;BME280;4481;43.406;24.454;2022-11-15T00:17:11;77987.41;;;-144.09;100.00
8890;BME280;4481;43.406;24.454;2022-11-15T00:19:37;77962.31;;;-144.09;100.00
8890;BME280;4481;43.406;24.454;2022-11-15T00:22:03;77951.88;;;-144.09;100.00
8890;BME280;4481;43.406;24.454;2022-11-15T00:24:29;77968.59;;;-144.09;100.00
8890;BME280;4481;43.406;24.454;2022-11-15T00:26:55;77966.50;;;-144.09;100.00
8890;BME280;4481;43.406;24.454;2022-11-15T00:29:22;77937.22;;;-144.09;100.00
8890;BME280;4481;43.406;24.454;2022-11-15T00:31:48;77941.41;;;-144.09;100.00
8890;BME280;4481;43.406;24.454;2022-11-15T00:34:15;77939.31;;;-144.09;100.00
8890;BME280;4481;43.406;24.454;2022-11-15T00:36:41;77941.41;;;-144.09;100.00
8890;BME280;4481;43.406;24.454;2022-11-15T00:39:07;77943.50;;;-144.09;100.00
8890;BME280;4481;43.406;24.454;2022-11-15T00:41:33;77970.69;;;-144.09;100.00
8890;BME280;4481;43.406;24.454;2022-11-15T00:44:00;77979.03;;;-144.09;100.00
8890;BME280;4481;43.406;24.454;2022-11-15T00:46:26;77983.22;;;-144.09;100.00
8890;BME280;4481;43.406;24.454;2022-11-15T00:48:52;77962.31;;;-144.09;100.00
8890;BME280;4481;43.406;24.454;2022-11-15T00:51:19;77956.03;;;-144.09;100.00
8890;BME280;4481;43.406;24.454;2022-11-15T00:53:45;77964.41;;;-144.09;100.00
8890;BME280;4481;43.406;24.454;2022-11-15T00:56:11;77966.50;;;-144.09;100.00
8890;BME280;4481;43.406;24.454;2022-11-15T00:58:38;77981.13;;;-144.09;100.00
8890;BME280;4481;43.406;24.454;2022-11-15T01:01:09;77983.22;;;-144.09;100.00
8890;BME280;4481;43.406;24.454;2022-11-15T01:03:36;77989.50;;;-144.09;100.00
8890;BME280;4481;43.406;24.454;2022-11-15T01:06:03;77985.31;;;-144.09;100.00
8890;BME280;4481;43.406;24.454;2022-11-15T01:08:29;77987.41;;;-144.09;100.00
8890;BME280;4481;43.406;24.454;2022-11-15T01:11:00;77974.84;;;-144.09;100.00
8890;BME280;4481;43.406;24.454;2022-11-15T01:13:26;77972.78;;;-144.09;100.00
8890;BME280;4481;43.406;24.454;2022-11-15T01:15:55;77958.13;;;-144.09;100.00
8890;BME280;4481;43.406;24.454;2022-11-15T01:18:21;77949.78;;;-144.09;100.00
8890;BME280;4481;43.406;24.454;2022-11-15T01:20:47;77939.31;;;-144.09;100.00
8890;BME280;4481;43.406;24.454;2022-11-15T01:23:13;77930.97;;;-144.09;100.00
8890;BME280;4481;43.406;24.454;2022-11-15T01:25:40;77924.69;;;-144.09;100.00
8890;BME280;4481;43.406;24.454;2022-11-15T01:28:06;77916.31;;;-144.09;100.00
8890;BME280;4481;43.406;24.454;2022-11-15T01:30:33;77910.06;;;-144.09;100.00
8890;BME280;4481;43.406;24.454;2022-11-15T01:32:59;77918.41;;;-144.09;100.00
8890;BME280;4481;43.406;24.454;2022-11-15T01:35:25;77907.97;;;-144.09;100.00
8890;BME280;4481;43.406;24.454;2022-11-15T01:37:51;77905.88;;;-144.09;100.00
8890;BME280;4481;43.406;24.454;2022-11-15T01:40:17;77905.88;;;-144.09;100.00
8890;BME280;4481;43.406;24.454;2022-11-15T01:42:44;77910.06;;;-144.09;100.00
8890;BME280;4481;43.406;24.454;2022-11-15T01:45:14;77907.97;;;-144.09;100.00
8890;BME280;4481;43.406;24.454;2022-11-15T01:47:44;77907.97;;;-144.09;100.00
8890;BME280;4481;43.406;24.454;2022-11-15T01:50:16;77907.97;;;-144.09;100.00
8890;BME280;4481;43.406;24.454;2022-11-15T01:52:43;77910.06;;;-144.09;100.00
8890;BME280;4481;43.406;24.454;2022-11-15T01:55:12;77914.25;;;-144.09;100.00
8890;BME280;4481;43.406;24.454;2022-11-15T01:57:41;77914.25;;;-144.09;100.00
8890;BME280;4481;43.406;24.454;2022-11-15T02:00:11;77914.25;;;-144.09;100.00
8890;BME280;4481;43.406;24.454;2022-11-15T02:02:37;77910.06;;;-144.09;100.00
8890;BME280;4481;43.406;24.454;2022-11-15T02:05:05;77910.06;;;-144.09;100.00
8890;BME280;4481;43.406;24.454;2022-11-15T02:07:32;77905.88;;;-144.09;100.00
8890;BME280;4481;43.406;24.454;2022-11-15T02:10:03;77901.69;;;-144.09;100.00
8890;BME280;4481;43.406;24.454;2022-11-15T02:12:32;77903.78;;;-144.09;100.00
8890;BME280;4481;43.406;24.454;2022-11-15T02:14:59;77912.16;;;-144.09;100.00
8890;BME280;4481;43.406;24.454;2022-11-15T02:17:37;77926.78;;;-144.09;100.00
8890;BME280;4481;43.406;24.454;2022-11-15T02:20:40;77910.06;;;-144.09;100.00
8890;BME280;4481;43.406;24.454;2022-11-15T02:23:52;77912.16;;;-144.09;100.00
8890;BME280;4481;43.406;24.454;2022-11-15T02:29:33;77907.97;;;-144.09;100.00
8890;BME280;4481;43.406;24.454;2022-11-15T02:32:11;77920.50;;;-144.09;100.00
8890;BME280;4481;43.406;24.454;2022-11-15T02:34:48;77920.50;;;-144.09;100.00
8890;BME280;4481;43.406;24.454;2022-11-15T02:37:20;77912.16;;;-144.09;100.00
8890;BME280;4481;43.406;24.454;2022-11-15T02:39:51;77901.69;;;-144.09;100.00
8890;BME280;4481;43.406;24.454;2022-11-15T02:42:23;77922.59;;;-144.09;100.00
8890;BME280;4481;43.406;24.454;2022-11-15T02:45:13;77928.88;;;-144.09;100.00
8890;BME280;4481;43.406;24.454;2022-11-15T02:47:45;77941.41;;;-144.09;100.00
8890;BME280;4481;43.406;24.454;2022-11-15T02:50:17;77920.50;;;-144.09;100.00
8890;BME280;4481;43.406;24.454;2022-11-15T02:52:45;77918.41;;;-144.09;100.00
8890;BME280;4481;43.406;24.454;2022-11-15T02:55:27;77910.06;;;-144.09;100.00
8890;BME280;4481;43.406;24.454;2022-11-15T02:58:02;77905.88;;;-144.09;100.00
8890;BME280;4481;43.406;24.454;2022-11-15T03:00:35;77901.69;;;-144.09;100.00
8890;BME280;4481;43.406;24.454;2022-11-15T03:03:16;77899.59;;;-144.09;100.00
8890;BME280;4481;43.406;24.454;2022-11-15T03:05:51;77887.06;;;-144.09;100.00
8890;BME280;4481;43.406;24.454;2022-11-15T03:08:24;77880.78;;;-144.09;100.00
8890;BME280;4481;43.406;24.454;2022-11-15T03:10:59;77878.69;;;-144.09;100.00
8890;BME280;4481;43.406;24.454;2022-11-15T03:13:30;77880.78;;;-144.09;100.00
8890;BME280;4481;43.406;24.454;2022-11-15T03:16:03;77876.63;;;-144.09;100.00
8890;BME280;4481;43.406;24.454;2022-11-15T03:18:32;77870.34;;;-144.09;100.00
8890;BME280;4481;43.406;24.454;2022-11-15T03:21:02;77895.44;;;-144.09;100.00
8890;BME280;4481;43.406;24.454;2022-11-15T03:23:30;77891.25;;;-144.09;100.00
8890;BME280;4481;43.406;24.454;2022-11-15T03:25:58;77887.06;;;-144.09;100.00
8890;BME280;4481;43.406;24.454;2022-11-15T03:28:31;77887.06;;;-144.09;100.00
8890;BME280;4481;43.406;24.454;2022-11-15T03:31:01;77899.59;;;-144.09;100.00
8890;BME280;4481;43.406;24.454;2022-11-15T03:33:50;77897.50;;;-144.09;100.00
8890;BME280;4481;43.406;24.454;2022-11-15T03:36:21;77893.34;;;-144.09;100.00
8890;BME280;4481;43.406;24.454;2022-11-15T03:38:49;77907.97;;;-144.09;100.00
8890;BME280;4481;43.406;24.454;2022-11-15T03:41:23;77914.25;;;-144.09;100.00
8890;BME280;4481;43.406;24.454;2022-11-15T03:43:54;77895.44;;;-144.09;100.00
8890;BME280;4481;43.406;24.454;2022-11-15T03:46:25;77893.34;;;-144.09;100.00
8890;BME280;4481;43.406;24.454;2022-11-15T03:48:59;77905.88;;;-144.09;100.00
8890;BME280;4481;43.406;24.454;2022-11-15T03:51:29;77943.50;;;-144.09;100.00
8890;BME280;4481;43.406;24.454;2022-11-15T03:53:55;77941.41;;;-144.09;100.00
8890;BME280;4481;43.406;24.454;2022-11-15T03:56:21;77922.59;;;-144.09;100.00
8890;BME280;4481;43.406;24.454;2022-11-15T03:58:48;77916.31;;;-144.09;100.00
8890;BME280;4481;43.406;24.454;2022-11-15T04:01:14;77941.41;;;-144.09;100.00
8890;BME280;4481;43.406;24.454;2022-11-15T04:03:40;77966.50;;;-144.09;100.00
8890;BME280;4481;43.406;24.454;2022-11-15T04:06:07;77968.59;;;-144.09;100.00
8890;BME280;4481;43.406;24.454;2022-11-15T04:08:33;77991.59;;;-144.09;100.00
8890;BME280;4481;43.406;24.454;2022-11-15T04:10:59;77981.13;;;-144.09;100.00
8890;BME280;4481;43.406;24.454;2022-11-15T04:13:26;77960.22;;;-144.09;100.00
8890;BME280;4481;43.406;24.454;2022-11-15T04:15:52;77943.50;;;-144.09;100.00
8890;BME280;4481;43.406;24.454;2022-11-15T04:18:18;77939.31;;;-144.09;100.00
8890;BME280;4481;43.406;24.454;2022-11-15T04:20:44;77958.13;;;-144.09;100.00
8890;BME280;4481;43.406;24.454;2022-11-15T04:23:29;77933.06;;;-144.09;100.00
8890;BME280;4481;43.406;24.454;2022-11-15T04:26:28;77916.31;;;-144.09;100.00
8890;BME280;4481;43.406;24.454;2022-11-15T04:28:54;77933.06;;;-144.09;100.00
8890;BME280;4481;43.406;24.454;2022-11-15T04:31:38;77930.97;;;-144.09;100.00
8890;BME280;4481;43.406;24.454;2022-11-15T04:34:04;77912.16;;;-144.09;100.00
8890;BME280;4481;43.406;24.454;2022-11-15T04:36:30;77903.78;;;-144.09;100.00
8890;BME280;4481;43.406;24.454;2022-11-15T04:39:15;77899.59;;;-144.09;100.00
8890;BME280;4481;43.406;24.454;2022-11-15T04:41:41;77891.25;;;-144.09;100.00
8890;BME280;4481;43.406;24.454;2022-11-15T04:44:07;77897.50;;;-144.09;100.00
8890;BME280;4481;43.406;24.454;2022-11-15T04:46:34;77887.06;;;-144.09;100.00
8890;BME280;4481;43.406;24.454;2022-11-15T04:49:01;77872.44;;;-144.09;100.00
8890;BME280;4481;43.406;24.454;2022-11-15T04:51:27;77855.72;;;-144.09;100.00
8890;BME280;4481;43.406;24.454;2022-11-15T04:53:54;77872.44;;;-144.09;100.00
8890;BME280;4481;43.406;24.454;2022-11-15T04:56:20;77884.97;;;-144.09;100.00
8890;BME280;4481;43.406;24.454;2022-11-15T04:58:48;77874.53;;;-144.09;100.00
8890;BME280;4481;43.406;24.454;2022-11-15T05:01:14;77884.97;;;-144.09;100.00
8890;BME280;4481;43.406;24.454;2022-11-15T05:03:41;77884.97;;;-144.09;100.00
8890;BME280;4481;43.406;24.454;2022-11-15T05:06:25;77897.50;;;-144.09;100.00
8890;BME280;4481;43.406;24.454;2022-11-15T05:08:51;77901.69;;;-144.09;100.00
8890;BME280;4481;43.406;24.454;2022-11-15T05:11:18;77905.88;;;-144.09;100.00
8890;BME280;4481;43.406;24.454;2022-11-15T05:13:45;77899.59;;;-144.09;100.00
8890;BME280;4481;43.406;24.454;2022-11-15T05:16:11;77893.34;;;-144.09;100.00
8890;BME280;4481;43.406;24.454;2022-11-15T05:18:37;77893.34;;;-144.09;100.00
8890;BME280;4481;43.406;24.454;2022-11-15T05:21:07;77895.44;;;-144.09;100.00
8890;BME280;4481;43.406;24.454;2022-11-15T05:23:33;77887.06;;;-144.09;100.00
8890;BME280;4481;43.406;24.454;2022-11-15T05:26:00;77905.88;;;-144.09;100.00
8890;BME280;4481;43.406;24.454;2022-11-15T05:28:26;77953.97;;;-144.09;100.00
8890;BME280;4481;43.406;24.454;2022-11-15T05:30:53;77941.41;;;-144.09;100.00
8890;BME280;4481;43.406;24.454;2022-11-15T05:33:19;77949.78;;;-144.09;100.00
8890;BME280;4481;43.406;24.454;2022-11-15T05:35:48;77939.31;;;-144.09;100.00
8890;BME280;4481;43.406;24.454;2022-11-15T05:38:16;77918.41;;;-144.09;100.00
8890;BME280;4481;43.406;24.454;2022-11-15T05:40:43;77935.13;;;-144.09;100.00
8890;BME280;4481;43.406;24.454;2022-11-15T05:43:10;77941.41;;;-144.09;100.00
8890;BME280;4481;43.406;24.454;2022-11-15T05:45:37;77947.69;;;-144.09;100.00
8890;BME280;4481;43.406;24.454;2022-11-15T05:48:06;77956.03;;;-144.09;100.00
8890;BME280;4481;43.406;24.454;2022-11-15T05:50:36;77962.31;;;-144.09;100.00
8890;BME280;4481;43.406;24.454;2022-11-15T05:53:05;77968.59;;;-144.09;100.00
8890;BME280;4481;43.406;24.454;2022-11-15T05:55:32;77964.41;;;-144.09;100.00
8890;BME280;4481;43.406;24.454;2022-11-15T05:57:59;77947.69;;;-144.09;100.00
8890;BME280;4481;43.406;24.454;2022-11-15T06:00:26;77924.69;;;-144.09;100.00
8890;BME280;4481;43.406;24.454;2022-11-15T06:02:53;77939.31;;;-144.09;100.00
8890;BME280;4481;43.406;24.454;2022-11-15T06:05:20;77918.41;;;-144.09;100.00
8890;BME280;4481;43.406;24.454;2022-11-15T06:07:46;77966.50;;;-144.09;100.00
8890;BME280;4481;43.406;24.454;2022-11-15T06:10:12;77983.22;;;-144.09;100.00
8890;BME280;4481;43.406;24.454;2022-11-15T06:12:38;77981.13;;;-144.09;100.00
8890;BME280;4481;43.406;24.454;2022-11-15T06:15:05;77949.78;;;-144.09;100.00
8890;BME280;4481;43.406;24.454;2022-11-15T06:17:31;77972.78;;;-144.09;100.00
8890;BME280;4481;43.406;24.454;2022-11-15T06:19:58;77960.22;;;-144.09;100.00
8890;BME280;4481;43.406;24.454;2022-11-15T06:22:24;77930.97;;;-144.09;100.00
8890;BME280;4481;43.406;24.454;2022-11-15T06:24:52;77916.31;;;-144.09;100.00
8890;BME280;4481;43.406;24.454;2022-11-15T06:27:18;77937.22;;;-144.09;100.00
8890;BME280;4481;43.406;24.454;2022-11-15T06:29:44;77918.41;;;-144.09;100.00
8890;BME280;4481;43.406;24.454;2022-11-15T06:32:11;77924.69;;;-144.09;100.00
8890;BME280;4481;43.406;24.454;2022-11-15T06:34:37;77933.06;;;-144.09;100.00
8890;BME280;4481;43.406;24.454;2022-11-15T06:37:03;77897.50;;;-144.09;100.00
8890;BME280;4481;43.406;24.454;2022-11-15T06:39:30;77884.97;;;-144.09;100.00
8890;BME280;4481;43.406;24.454;2022-11-15T06:41:56;77878.69;;;-144.09;100.00
8890;BME280;4481;43.406;24.454;2022-11-15T06:44:22;77866.16;;;-144.09;100.00
8890;BME280;4481;43.406;24.454;2022-11-15T06:46:48;77868.25;;;-144.09;100.00
8890;BME280;4481;43.406;24.454;2022-11-15T06:49:15;77859.88;;;-144.09;100.00
8890;BME280;4481;43.406;24.454;2022-11-15T06:51:42;77874.53;;;-144.09;100.00
8890;BME280;4481;43.406;24.454;2022-11-15T06:54:08;77899.59;;;-144.09;100.00
8890;BME280;4481;43.406;24.454;2022-11-15T06:56:35;77880.78;;;-144.09;100.00
8890;BME280;4481;43.406;24.454;2022-11-15T06:59:04;77922.59;;;-144.09;100.00
8890;BME280;4481;43.406;24.454;2022-11-15T07:01:30;77920.50;;;-144.09;100.00
8890;BME280;4481;43.406;24.454;2022-11-15T07:03:56;77891.25;;;-144.09;100.00
8890;BME280;4481;43.406;24.454;2022-11-15T07:06:22;77861.97;;;-144.09;100.00
8890;BME280;4481;43.406;24.454;2022-11-15T07:08:49;77838.97;;;-144.09;100.00
8890;BME280;4481;43.406;24.454;2022-11-15T07:11:15;77838.97;;;-144.09;100.00
8890;BME280;4481;43.406;24.454;2022-11-15T07:13:42;77841.06;;;-144.09;100.00
8890;BME280;4481;43.406;24.454;2022-11-15T07:16:09;77880.78;;;-144.09;100.00
8890;BME280;4481;43.406;24.454;2022-11-15T07:18:37;77851.53;;;-144.09;100.00
8890;BME280;4481;43.406;24.454;2022-11-15T07:21:07;77845.25;;;-144.09;100.00
8890;BME280;4481;43.406;24.454;2022-11-15T07:23:36;77845.25;;;-144.09;100.00
8890;BME280;4481;43.406;24.454;2022-11-15T07:26:02;77864.06;;;-144.09;100.00
8890;BME280;4481;43.406;24.454;2022-11-15T07:28:28;77836.91;;;-144.09;100.00
8890;BME280;4481;43.406;24.454;2022-11-15T07:30:55;77822.25;;;-144.09;100.00
8890;BME280;4481;43.406;24.454;2022-11-15T07:33:21;77822.25;;;-144.09;100.00
8890;BME280;4481;43.406;24.454;2022-11-15T07:35:48;77807.63;;;-144.09;100.00
8890;BME280;4481;43.406;24.454;2022-11-15T07:38:14;77801.34;;;-144.09;100.00
8890;BME280;4481;43.406;24.454;2022-11-15T07:40:45;77807.63;;;-144.09;100.00
8890;BME280;4481;43.406;24.454;2022-11-15T07:43:12;77803.44;;;-144.09;100.00
8890;BME280;4481;43.406;24.454;2022-11-15T07:45:41;77805.53;;;-144.09;100.00
8890;BME280;4481;43.406;24.454;2022-11-15T07:48:08;77799.28;;;-144.09;100.00
8890;BME280;4481;43.406;24.454;2022-11-15T07:50:34;77788.81;;;-144.09;100.00
8890;BME280;4481;43.406;24.454;2022-11-15T07:53:00;77778.38;;;-144.09;100.00
8890;BME280;4481;43.406;24.454;2022-11-15T07:55:27;77805.53;;;-144.09;100.00
8890;BME280;4481;43.406;24.454;2022-11-15T07:58:00;77790.91;;;-144.09;100.00
8890;BME280;4481;43.406;24.454;2022-11-15T08:00:26;77801.34;;;-144.09;100.00
8890;BME280;4481;43.406;24.454;2022-11-15T08:02:52;77772.09;;;-144.09;100.00
8890;BME280;4481;43.406;24.454;2022-11-15T08:05:19;77757.47;;;-144.09;100.00
8890;BME280;4481;43.406;24.454;2022-11-15T08:07:45;77770.00;;;-144.09;100.00
8890;BME280;4481;43.406;24.454;2022-11-15T08:10:11;77757.47;;;-144.09;100.00
8890;BME280;4481;43.406;24.454;2022-11-15T08:12:39;77738.66;;;-144.09;100.00
8890;BME280;4481;43.406;24.454;2022-11-15T08:15:06;77728.19;;;-144.09;100.00
8890;BME280;4481;43.406;24.454;2022-11-15T08:17:32;77730.28;;;-144.09;100.00
8890;BME280;4481;43.406;24.454;2022-11-15T08:19:59;77761.66;;;-144.09;100.00
8890;BME280;4481;43.406;24.454;2022-11-15T08:22:26;77730.28;;;-144.09;100.00
8890;BME280;4481;43.406;24.454;2022-11-15T08:24:52;77724.03;;;-144.09;100.00
8890;BME280;4481;43.406;24.454;2022-11-15T08:27:18;77719.84;;;-144.09;100.00
8890;BME280;4481;43.406;24.454;2022-11-15T08:29:45;77701.03;;;-144.09;100.00
8890;BME280;4481;43.406;24.454;2022-11-15T08:32:12;77698.94;;;-144.09;100.00
8890;BME280;4481;43.406;24.454;2022-11-15T08:34:38;77694.75;;;-144.09;100.00
8890;BME280;4481;43.406;24.454;2022-11-15T08:37:04;77696.84;;;-144.09;100.00
8890;BME280;4481;43.406;24.454;2022-11-15T08:39:31;77692.66;;;-144.09;100.00
8890;BME280;4481;43.406;24.454;2022-11-15T08:41:58;77682.22;;;-144.09;100.00
8890;BME280;4481;43.406;24.454;2022-11-15T08:44:24;77684.31;;;-144.09;100.00
8890;BME280;4481;43.406;24.454;2022-11-15T08:46:51;77663.41;;;-144.09;100.00
8890;BME280;4481;43.406;24.454;2022-11-15T08:49:17;77648.78;;;-144.09;100.00
8890;BME280;4481;43.406;24.454;2022-11-15T08:51:44;77657.13;;;-144.09;100.00
8890;BME280;4481;43.406;24.454;2022-11-15T08:54:10;77661.31;;;-144.09;100.00
8890;BME280;4481;43.406;24.454;2022-11-15T08:56:37;77661.31;;;-144.09;100.00
8890;BME280;4481;43.406;24.454;2022-11-15T08:59:04;77675.94;;;-144.09;100.00
8890;BME280;4481;43.406;24.454;2022-11-15T09:01:30;77671.75;;;-144.09;100.00
8890;BME280;4481;43.406;24.454;2022-11-15T09:03:57;77667.59;;;-144.09;100.00
8890;BME280;4481;43.406;24.454;2022-11-15T09:06:24;77667.59;;;-144.09;100.00
8890;BME280;4481;43.406;24.454;2022-11-15T09:08:50;77638.31;;;-144.09;99.58
8890;BME280;4481;43.406;24.454;2022-11-15T09:11:16;77638.31;;;-144.09;99.74
8890;BME280;4481;43.406;24.454;2022-11-15T09:13:46;77636.22;;;-144.09;100.00
8890;BME280;4481;43.406;24.454;2022-11-15T09:16:12;77632.03;;;-144.09;100.00
8890;BME280;4481;43.406;24.454;2022-11-15T09:18:40;77634.13;;;-144.09;100.00
8890;BME280;4481;43.406;24.454;2022-11-15T09:21:08;77621.59;;;-144.09;99.89
8890;BME280;4481;43.406;24.454;2022-11-15T09:23:34;77596.50;;;-144.09;100.00
8890;BME280;4481;43.406;24.454;2022-11-15T09:26:02;77594.44;;;-144.09;98.69
8890;BME280;4481;43.406;24.454;2022-11-15T09:28:29;77579.78;;;-144.09;98.38
8890;BME280;4481;43.406;24.454;2022-11-15T09:30:57;77573.53;;;-144.09;97.92
8890;BME280;4481;43.406;24.454;2022-11-15T09:33:25;77581.88;;;-144.09;98.33
8890;BME280;4481;43.406;24.454;2022-11-15T09:35:51;77606.97;;;-144.09;98.19
8890;BME280;4481;43.406;24.454;2022-11-15T09:38:18;77640.41;;;-144.09;99.21
8890;BME280;4481;43.406;24.454;2022-11-15T09:40:45;77619.50;;;-144.09;99.29
8890;BME280;4481;43.406;24.454;2022-11-15T09:43:26;77623.69;;;-144.09;99.39
8890;BME280;4481;43.406;24.454;2022-11-15T09:46:04;77619.50;;;-144.09;99.30
8890;BME280;4481;43.406;24.454;2022-11-15T09:48:48;77619.50;;;-144.09;98.51
8890;BME280;4481;43.406;24.454;2022-11-15T09:51:23;77613.25;;;-144.09;98.45
8890;BME280;4481;43.406;24.454;2022-11-15T09:53:57;77629.97;;;-144.09;99.26
8890;BME280;4481;43.406;24.454;2022-11-15T09:56:28;77625.78;;;-144.09;99.50
8890;BME280;4481;43.406;24.454;2022-11-15T09:59:08;77611.16;;;-144.09;99.46
8890;BME280;4481;43.406;24.454;2022-11-15T10:01:49;77611.16;;;-144.09;99.19
8890;BME280;4481;43.406;24.454;2022-11-15T10:04:20;77611.16;;;-144.09;99.87
8890;BME280;4481;43.406;24.454;2022-11-15T10:06:55;77596.50;;;-144.09;99.04
8890;BME280;4481;43.406;24.454;2022-11-15T10:09:28;77588.16;;;-144.09;98.35
8890;BME280;4481;43.406;24.454;2022-11-15T10:11:56;77579.78;;;-144.09;98.78
8890;BME280;4481;43.406;24.454;2022-11-15T10:14:25;77617.41;;;-144.09;100.00
8890;BME280;4481;43.406;24.454;2022-11-15T10:17:23;77600.69;;;-144.09;99.97
8890;BME280;4481;43.406;24.454;2022-11-15T10:20:02;77594.44;;;-144.09;99.92
8890;BME280;4481;43.406;24.454;2022-11-15T10:22:38;77563.06;;;-144.09;98.97
8890;BME280;4481;43.406;24.454;2022-11-15T10:25:17;77588.16;;;-144.09;99.73
8890;BME280;4481;43.406;24.454;2022-11-15T10:27:47;77613.25;;;-144.09;100.00
8890;BME280;4481;43.406;24.454;2022-11-15T10:30:18;77579.78;;;-144.09;99.21
8890;BME280;4481;43.406;24.454;2022-11-15T10:32:47;77590.25;;;-144.09;99.41
8890;BME280;4481;43.406;24.454;2022-11-15T10:35:25;77611.16;;;-144.09;99.29
8890;BME280;4481;43.406;24.454;2022-11-15T10:38:04;77588.16;;;-144.09;98.90
8890;BME280;4481;43.406;24.454;2022-11-15T10:40:31;77581.88;;;-144.09;99.12
8890;BME280;4481;43.406;24.454;2022-11-15T10:43:10;77586.06;;;-144.09;99.08
8890;BME280;4481;43.406;24.454;2022-11-15T10:45:40;77563.06;;;-144.09;99.11
8890;BME280;4481;43.406;24.454;2022-11-15T10:48:22;77558.88;;;-144.09;98.17
8890;BME280;4481;43.406;24.454;2022-11-15T10:50:50;77567.25;;;-144.09;98.90
8890;BME280;4481;43.406;24.454;2022-11-15T10:53:21;77565.16;;;-144.09;98.64
8890;BME280;4481;43.406;24.454;2022-11-15T10:55:50;77575.63;;;-144.09;98.75
8890;BME280;4481;43.406;24.454;2022-11-15T10:58:29;77598.59;;;-144.09;98.66
8890;BME280;4481;43.406;24.454;2022-11-15T11:01:08;77571.44;;;-144.09;98.49
8890;BME280;4481;43.406;24.454;2022-11-15T11:03:36;77583.97;;;-144.09;99.22
8890;BME280;4481;43.406;24.454;2022-11-15T11:06:06;77546.34;;;-144.09;98.16
8890;BME280;4481;43.406;24.454;2022-11-15T11:08:32;77523.34;;;-144.09;97.35
8890;BME280;4481;43.406;24.454;2022-11-15T11:11:00;77529.63;;;-144.09;97.40
8890;BME280;4481;43.406;24.454;2022-11-15T11:13:28;77556.81;;;-144.09;97.97
8890;BME280;4481;43.406;24.454;2022-11-15T11:16:11;77542.16;;;-144.09;98.39
8890;BME280;4481;43.406;24.454;2022-11-15T11:18:48;77521.28;;;-144.09;97.25
8890;BME280;4481;43.406;24.454;2022-11-15T11:21:20;77512.91;;;-144.09;96.33
8890;BME280;4481;43.406;24.454;2022-11-15T11:23:53;77494.09;;;-144.09;96.34
8890;BME280;4481;43.406;24.454;2022-11-15T11:26:40;77481.56;;;-144.09;95.84
8890;BME280;4481;43.406;24.454;2022-11-15T11:29:20;77464.84;;;-144.09;94.83
8890;BME280;4481;43.406;24.454;2022-11-15T11:31:55;77460.66;;;-144.09;94.45
8890;BME280;4481;43.406;24.454;2022-11-15T11:34:36;77462.75;;;-144.09;94.75
8890;BME280;4481;43.406;24.454;2022-11-15T11:37:12;77498.28;;;-144.09;95.68
8890;BME280;4481;43.406;24.454;2022-11-15T11:39:48;77494.09;;;-144.09;96.28
8890;BME280;4481;43.406;24.454;2022-11-15T11:42:24;77477.38;;;-144.09;96.13
8890;BME280;4481;43.406;24.454;2022-11-15T11:44:58;77454.38;;;-144.09;96.11
8890;BME280;4481;43.406;24.454;2022-11-15T11:47:31;77439.75;;;-144.09;95.95
8890;BME280;4481;43.406;24.454;2022-11-15T11:50:02;77418.84;;;-144.09;95.19
8890;BME280;4481;43.406;24.454;2022-11-15T11:52:40;77408.41;;;-144.09;95.27
8890;BME280;4481;43.406;24.454;2022-11-15T11:55:15;77466.94;;;-144.09;95.56
8890;BME280;4481;43.406;24.454;2022-11-15T11:57:47;77502.47;;;-144.09;96.46
8890;BME280;4481;43.406;24.454;2022-11-15T12:00:19;77521.28;;;-144.09;96.90
8890;BME280;4481;43.406;24.454;2022-11-15T12:02:55;77546.34;;;-144.09;97.95
8890;BME280;4481;43.406;24.454;2022-11-15T12:05:31;77544.25;;;-144.09;97.51
8890;BME280;4481;43.406;24.454;2022-11-15T12:08:09;77556.81;;;-144.09;98.08
8890;BME280;4481;43.406;24.454;2022-11-15T12:10:45;77558.88;;;-144.09;98.42
8890;BME280;4481;43.406;24.454;2022-11-15T12:13:16;77529.63;;;-144.09;97.70
8890;BME280;4481;43.406;24.454;2022-11-15T12:15:52;77519.19;;;-144.09;97.40
8890;BME280;4481;43.406;24.454;2022-11-15T12:18:19;77512.91;;;-144.09;97.08
8890;BME280;4481;43.406;24.454;2022-11-15T12:20:52;77500.38;;;-144.09;96.96
8890;BME280;4481;43.406;24.454;2022-11-15T12:23:25;77533.81;;;-144.09;97.26
8890;BME280;4481;43.406;24.454;2022-11-15T12:25:57;77565.16;;;-144.09;98.37
8890;BME280;4481;43.406;24.454;2022-11-15T12:28:32;77533.81;;;-144.09;97.67
8890;BME280;4481;43.406;24.454;2022-11-15T12:31:03;77483.66;;;-144.09;96.36
8890;BME280;4481;43.406;24.454;2022-11-15T12:33:35;77517.09;;;-144.09;97.34
8890;BME280;4481;43.406;24.454;2022-11-15T12:36:04;77519.19;;;-144.09;96.56
8890;BME280;4481;43.406;24.454;2022-11-15T12:38:50;77479.47;;;-144.09;95.85
8890;BME280;4481;43.406;24.454;2022-11-15T12:41:18;77466.94;;;-144.09;95.95
8890;BME280;4481;43.406;24.454;2022-11-15T12:43:46;77500.38;;;-144.09;96.87
8890;BME280;4481;43.406;24.454;2022-11-15T12:46:20;77460.66;;;-144.09;95.56
8890;BME280;4481;43.406;24.454;2022-11-15T12:48:53;77456.47;;;-144.09;95.62
8890;BME280;4481;43.406;24.454;2022-11-15T12:51:22;77446.03;;;-144.09;95.34
8890;BME280;4481;43.406;24.454;2022-11-15T12:53:48;77433.47;;;-144.09;95.74
8890;BME280;4481;43.406;24.454;2022-11-15T12:56:20;77435.56;;;-144.09;95.24
8890;BME280;4481;43.406;24.454;2022-11-15T12:58:49;77427.22;;;-144.09;94.86